createdAt,value
2019-05-29T00:00:47.787Z,87.49
2019-05-29T00:01:47.731Z,86.88
2019-05-29T00:02:47.721Z,87.53
2019-05-29T00:03:47.700Z,86.88
2019-05-29T00:04:47.721Z,87.73
2019-05-29T00:05:47.668Z,87.69
2019-05-29T00:06:47.671Z,88.51
2019-05-29T00:07:47.671Z,87.79
2019-05-29T00:08:47.633Z,87.79
2019-05-29T00:09:47.688Z,88.61
2019-05-29T00:10:47.604Z,88.00
2019-05-29T00:11:47.607Z,88.00
2019-05-29T00:12:47.602Z,87.49
2019-05-29T00:13:47.583Z,87.59
2019-05-29T00:14:47.566Z,87.79
2019-05-29T00:15:47.597Z,87.49
2019-05-29T00:16:47.539Z,87.53
2019-05-29T00:17:47.541Z,86.92
2019-05-29T00:18:47.541Z,86.41
2019-05-29T00:19:47.521Z,86.86
2019-05-29T00:20:47.563Z,86.76
2019-05-29T00:21:47.479Z,87.37
2019-05-29T00:22:47.521Z,87.26
2019-05-29T00:23:47.478Z,85.98
2019-05-29T00:24:47.483Z,86.08
2019-05-29T00:25:47.439Z,85.47
2019-05-29T00:26:47.595Z,84.04
2019-05-29T00:27:47.418Z,84.04
2019-05-29T00:28:47.453Z,84.34
2019-05-29T00:29:47.411Z,83.94
2019-05-29T00:30:47.416Z,83.43
2019-05-29T00:31:47.427Z,83.63
2019-05-29T00:32:47.374Z,81.29
2019-05-29T00:33:47.353Z,82.14
2019-05-29T00:34:47.344Z,82.86
2019-05-29T00:35:47.351Z,81.59
2019-05-29T00:36:47.358Z,81.02
2019-05-29T00:37:47.400Z,81.73
2019-05-29T00:38:47.313Z,80.91
2019-05-29T00:39:47.293Z,81.84
2019-05-29T00:40:47.282Z,81.49
2019-05-29T00:41:47.275Z,81.49
2019-05-29T00:42:47.334Z,78.88
2019-05-29T00:43:47.249Z,79.18
2019-05-29T00:44:47.255Z,79.80
2019-05-29T00:45:47.267Z,80.07
2019-05-29T00:46:47.230Z,81.94
2019-05-29T00:47:47.214Z,79.18
2019-05-29T00:48:47.247Z,79.08
2019-05-29T00:49:47.187Z,80.00
2019-05-29T00:50:47.185Z,79.22
2019-05-29T00:51:47.158Z,77.79
2019-05-29T00:52:47.171Z,78.41
2019-05-29T00:53:47.624Z,78.30
2019-05-29T00:54:47.121Z,78.67
2019-05-29T00:55:47.127Z,79.22
2019-05-29T00:56:47.121Z,77.96
2019-05-29T00:57:47.125Z,77.65
2019-05-29T00:58:47.100Z,75.13
2019-05-29T00:59:47.113Z,76.32
2019-05-29T01:00:47.061Z,74.90
2019-05-29T01:01:47.065Z,75.31
2019-05-29T01:02:47.385Z,75.31
2019-05-29T01:03:47.067Z,75.71
2019-05-29T01:04:47.082Z,76.80
2019-05-29T01:05:47.031Z,75.78
2019-05-29T01:06:46.992Z,75.20
2019-05-29T01:07:47.001Z,75.78
2019-05-29T01:08:47.004Z,76.39
2019-05-29T01:09:47.015Z,77.21
2019-05-29T01:10:46.959Z,77.00
2019-05-29T01:11:46.947Z,76.59
2019-05-29T01:12:46.930Z,76.19
2019-05-29T01:13:46.928Z,77.25
2019-05-29T01:14:50.171Z,76.90
2019-05-29T01:15:46.935Z,77.31
2019-05-29T01:16:46.903Z,77.62
2019-05-29T01:17:46.906Z,77.00
2019-05-29T01:18:46.872Z,77.86
2019-05-29T01:19:46.867Z,79.55
2019-05-29T01:20:46.881Z,78.84
2019-05-29T01:21:46.850Z,79.28
2019-05-29T01:22:46.848Z,78.88
2019-05-29T01:23:46.809Z,78.98
2019-05-29T01:24:46.800Z,79.14
2019-05-29T01:25:46.805Z,79.28
2019-05-29T01:26:46.813Z,79.49
2019-05-29T01:27:46.768Z,80.47
2019-05-29T01:28:46.756Z,79.80
2019-05-29T01:29:46.756Z,79.25
2019-05-29T01:30:46.736Z,79.45
2019-05-29T01:31:46.796Z,79.25
2019-05-29T01:32:46.738Z,79.18
2019-05-29T01:33:46.706Z,79.22
2019-05-29T01:34:46.719Z,79.32
2019-05-29T01:35:46.673Z,80.65
2019-05-29T01:36:46.675Z,81.46
2019-05-29T01:37:46.741Z,81.77
2019-05-29T01:38:46.649Z,81.05
2019-05-29T01:39:46.659Z,80.61
2019-05-29T01:40:46.627Z,80.04
2019-05-29T01:41:46.601Z,80.96
2019-05-29T01:42:49.772Z,80.85
2019-05-29T01:43:46.607Z,81.77
2019-05-29T01:44:46.582Z,81.37
2019-05-29T01:45:46.583Z,81.98
2019-05-29T01:46:46.559Z,81.87
2019-05-29T01:47:46.606Z,81.57
2019-05-29T01:48:46.545Z,81.77
2019-05-29T01:49:46.518Z,82.59
2019-05-29T01:50:46.509Z,82.93
2019-05-29T01:51:46.601Z,83.00
2019-05-29T01:52:46.489Z,82.69
2019-05-29T01:53:46.531Z,83.34
2019-05-29T01:54:46.486Z,83.24
2019-05-29T01:55:46.457Z,83.34
2019-05-29T01:56:46.493Z,83.85
2019-05-29T01:57:46.465Z,84.26
2019-05-29T01:58:46.505Z,84.06
2019-05-29T01:59:46.424Z,84.16
2019-05-29T02:00:46.411Z,84.33
2019-05-29T02:01:46.392Z,83.81
2019-05-29T02:02:46.388Z,83.87
2019-05-29T02:03:46.373Z,84.08
2019-05-29T02:04:46.380Z,83.67
2019-05-29T02:05:46.357Z,83.87
2019-05-29T02:06:46.326Z,83.57
2019-05-29T02:07:46.332Z,82.55
2019-05-29T02:08:46.304Z,82.35
2019-05-29T02:09:46.347Z,83.57
2019-05-29T02:10:46.285Z,83.40
2019-05-29T02:11:46.288Z,83.37
2019-05-29T02:12:46.263Z,83.26
2019-05-29T02:13:46.263Z,83.78
2019-05-29T02:14:46.286Z,83.67
2019-05-29T02:15:46.246Z,83.26
2019-05-29T02:16:46.254Z,83.47
2019-05-29T02:17:46.229Z,83.94
2019-05-29T02:18:46.201Z,83.84
2019-05-29T02:19:46.201Z,83.63
2019-05-29T02:20:46.244Z,81.12
2019-05-29T02:21:46.166Z,82.24
2019-05-29T02:22:47.044Z,83.47
2019-05-29T02:23:46.180Z,82.86
2019-05-29T02:24:46.154Z,83.26
2019-05-29T02:25:46.184Z,83.26
2019-05-29T02:26:46.111Z,82.14
2019-05-29T02:27:46.104Z,82.35
2019-05-29T02:28:46.092Z,82.35
2019-05-29T02:29:46.097Z,82.24
2019-05-29T02:30:46.110Z,82.10
2019-05-29T02:31:46.084Z,82.31
2019-05-29T02:32:46.055Z,81.12
2019-05-29T02:33:46.034Z,81.02
2019-05-29T02:34:46.039Z,81.87
2019-05-29T02:35:46.036Z,83.00
2019-05-29T02:36:46.058Z,83.10
2019-05-29T02:37:46.010Z,83.71
2019-05-29T02:38:45.981Z,83.37
2019-05-29T02:39:45.962Z,83.26
2019-05-29T02:40:45.971Z,83.47
2019-05-29T02:41:45.985Z,83.37
2019-05-29T02:42:45.966Z,82.51
2019-05-29T02:43:45.956Z,82.75
2019-05-29T02:44:45.924Z,82.45
2019-05-29T02:45:54.255Z,83.57
2019-05-29T02:46:45.908Z,83.87
2019-05-29T02:47:45.925Z,83.57
2019-05-29T02:48:45.862Z,82.96
2019-05-29T02:49:45.859Z,82.45
2019-05-29T02:50:45.874Z,83.53
2019-05-29T02:51:45.843Z,82.31
2019-05-29T02:52:45.845Z,82.51
2019-05-29T02:53:45.858Z,82.14
2019-05-29T02:54:45.802Z,81.94
2019-05-29T02:55:45.788Z,81.59
2019-05-29T02:56:45.770Z,82.21
2019-05-29T02:57:45.800Z,82.00
2019-05-29T02:58:45.821Z,80.98
2019-05-29T02:59:45.759Z,81.18
2019-05-29T03:00:45.778Z,81.80
2019-05-29T03:01:45.718Z,81.73
2019-05-29T03:02:45.736Z,82.14
2019-05-29T03:03:45.722Z,80.91
2019-05-29T03:04:45.747Z,81.94
2019-05-29T03:05:45.673Z,81.32
2019-05-29T03:06:45.661Z,81.12
2019-05-29T03:07:45.666Z,81.12
2019-05-29T03:08:45.668Z,81.16
2019-05-29T03:09:45.678Z,82.39
2019-05-29T03:10:45.640Z,81.98
2019-05-29T03:11:45.611Z,82.04
2019-05-29T03:12:45.609Z,81.32
2019-05-29T03:13:45.596Z,82.14
2019-05-29T03:14:45.608Z,82.14
2019-05-29T03:15:45.617Z,81.37
2019-05-29T03:16:45.581Z,81.98
2019-05-29T03:17:45.562Z,81.53
2019-05-29T03:18:45.548Z,81.16
2019-05-29T03:19:45.537Z,81.98
2019-05-29T03:20:45.552Z,82.18
2019-05-29T03:21:45.523Z,82.39
2019-05-29T03:22:45.518Z,82.08
2019-05-29T03:23:45.486Z,80.65
2019-05-29T03:24:45.467Z,81.67
2019-05-29T03:25:45.474Z,82.08
2019-05-29T03:26:45.488Z,82.39
2019-05-29T03:27:45.453Z,82.18
2019-05-29T03:28:45.419Z,81.37
2019-05-29T03:29:45.411Z,81.46
2019-05-29T03:30:46.530Z,82.12
2019-05-29T03:31:47.832Z,82.59
2019-05-29T03:32:48.002Z,82.79
2019-05-29T03:33:49.699Z,82.49
2019-05-29T03:34:47.635Z,81.60
2019-05-29T03:35:48.097Z,81.98
2019-05-29T03:36:48.015Z,81.98
2019-05-29T03:37:45.374Z,81.37
2019-05-29T03:38:45.350Z,82.12
2019-05-29T03:39:45.327Z,82.53
2019-05-29T03:40:45.287Z,82.18
2019-05-29T03:41:45.282Z,81.77
2019-05-29T03:42:46.071Z,81.26
2019-05-29T03:43:45.264Z,81.77
2019-05-29T03:44:45.271Z,81.26
2019-05-29T03:45:45.271Z,80.55
2019-05-29T03:46:46.276Z,79.43
2019-05-29T03:47:45.229Z,80.69
2019-05-29T03:48:45.238Z,80.79
2019-05-29T03:49:45.207Z,80.75
2019-05-29T03:50:45.213Z,81.98
2019-05-29T03:51:45.167Z,80.65
2019-05-29T03:52:45.169Z,80.04
2019-05-29T03:53:45.229Z,80.75
2019-05-29T03:54:45.168Z,79.22
2019-05-29T03:55:45.142Z,79.32
2019-05-29T03:56:45.137Z,79.02
2019-05-29T03:57:45.152Z,79.12
2019-05-29T03:58:45.088Z,79.22
2019-05-29T03:59:45.159Z,79.59
2019-05-29T04:00:47.609Z,79.12
2019-05-29T04:01:45.063Z,79.43
2019-05-29T04:02:45.073Z,79.36
2019-05-29T04:03:45.041Z,79.32
2019-05-29T04:04:45.055Z,80.24
2019-05-29T04:05:45.030Z,80.34
2019-05-29T04:06:47.432Z,79.87
2019-05-29T04:07:45.015Z,80.58
2019-05-29T04:08:45.020Z,79.25
2019-05-29T04:09:45.034Z,79.16
2019-05-29T04:10:44.966Z,79.25
2019-05-29T04:11:44.972Z,79.09
2019-05-29T04:12:44.951Z,79.39
2019-05-29T04:13:44.937Z,80.07
2019-05-29T04:14:44.959Z,79.39
2019-05-29T04:15:44.958Z,79.29
2019-05-29T04:16:59.022Z,79.50
2019-05-29T04:17:45.933Z,79.46
2019-05-29T04:18:44.882Z,79.66
2019-05-29T04:19:44.874Z,79.25
2019-05-29T04:20:44.893Z,79.87
2019-05-29T04:21:44.855Z,79.16
2019-05-29T04:22:44.839Z,78.13
2019-05-29T04:23:44.844Z,77.52
2019-05-29T04:24:44.821Z,77.42
2019-05-29T04:25:44.876Z,78.03
2019-05-29T04:26:44.779Z,77.31
2019-05-29T04:27:44.768Z,76.50
2019-05-29T04:28:44.785Z,75.17
2019-05-29T04:29:44.797Z,76.09
2019-05-29T04:30:44.753Z,76.29
2019-05-29T04:31:44.763Z,77.31
2019-05-29T04:32:44.714Z,76.70
2019-05-29T04:33:44.719Z,76.70
2019-05-29T04:34:44.723Z,75.27
2019-05-29T04:35:44.692Z,75.21
2019-05-29T04:36:44.730Z,76.60
2019-05-29T04:37:44.701Z,76.81
2019-05-29T04:38:44.650Z,75.07
2019-05-29T04:39:44.661Z,75.21
2019-05-29T04:40:44.635Z,74.80
2019-05-29T04:41:44.676Z,75.31
2019-05-29T04:42:44.626Z,75.48
2019-05-29T04:43:44.609Z,73.74
2019-05-29T04:44:44.591Z,74.18
2019-05-29T04:45:44.591Z,75.27
2019-05-29T04:46:44.633Z,75.41
2019-05-29T04:47:44.593Z,74.59
2019-05-29T04:48:44.576Z,73.13
2019-05-29T04:49:44.549Z,73.74
2019-05-29T04:50:44.530Z,73.88
2019-05-29T04:51:44.529Z,73.77
2019-05-29T04:52:44.554Z,73.98
2019-05-29T04:53:44.501Z,73.98
2019-05-29T04:54:44.492Z,74.08
2019-05-29T04:55:44.480Z,74.59
2019-05-29T04:56:44.460Z,74.49
2019-05-29T04:57:44.491Z,75.62
2019-05-29T04:58:44.445Z,75.82
2019-05-29T04:59:44.433Z,75.82
2019-05-29T05:00:58.187Z,76.12
2019-05-29T05:01:44.421Z,75.48
2019-05-29T05:02:44.400Z,75.62
2019-05-29T05:03:44.433Z,75.92
2019-05-29T05:04:44.377Z,75.07
2019-05-29T05:05:44.385Z,75.78
2019-05-29T05:06:44.349Z,75.17
2019-05-29T05:07:44.357Z,74.66
2019-05-29T05:08:44.339Z,75.89
2019-05-29T05:09:44.394Z,75.99
2019-05-29T05:10:44.314Z,77.01
2019-05-29T05:11:44.312Z,76.97
2019-05-29T05:12:44.310Z,77.28
2019-05-29T05:13:44.269Z,77.08
2019-05-29T05:14:44.303Z,76.77
2019-05-29T05:15:44.266Z,77.01
2019-05-29T05:16:44.240Z,77.31
2019-05-29T05:17:44.224Z,77.11
2019-05-29T05:18:44.227Z,78.03
2019-05-29T05:19:44.234Z,78.41
2019-05-29T05:20:44.236Z,78.34
2019-05-29T05:21:44.186Z,77.69
2019-05-29T05:22:44.190Z,75.58
2019-05-29T05:23:44.158Z,76.60
2019-05-29T05:24:44.272Z,77.62
2019-05-29T05:25:44.181Z,77.83
2019-05-29T05:26:44.130Z,77.62
2019-05-29T05:27:44.123Z,77.52
2019-05-29T05:28:45.921Z,76.90
2019-05-29T05:29:44.084Z,76.70
2019-05-29T05:30:44.146Z,77.22
2019-05-29T05:31:44.058Z,77.52
2019-05-29T05:32:44.090Z,77.01
2019-05-29T05:33:44.067Z,77.01
2019-05-29T05:34:44.045Z,77.72
2019-05-29T05:35:44.038Z,77.42
2019-05-29T05:36:44.077Z,77.08
2019-05-29T05:37:43.995Z,77.01
2019-05-29T05:38:43.997Z,77.11
2019-05-29T05:39:44.003Z,76.19
2019-05-29T05:40:43.961Z,77.01
2019-05-29T05:41:43.982Z,77.52
2019-05-29T05:42:43.995Z,77.31
2019-05-29T05:43:43.930Z,76.40
2019-05-29T05:44:43.932Z,77.66
2019-05-29T05:45:43.905Z,77.42
2019-05-29T05:46:43.947Z,77.83
2019-05-29T05:47:56.441Z,77.83
2019-05-29T05:48:44.885Z,77.01
2019-05-29T05:49:43.865Z,76.70
2019-05-29T05:50:43.870Z,76.19
2019-05-29T05:51:44.749Z,76.90
2019-05-29T05:52:43.850Z,76.29
2019-05-29T05:53:43.847Z,76.90
2019-05-29T05:54:43.852Z,76.40
2019-05-29T05:55:43.807Z,77.01
2019-05-29T05:56:43.811Z,77.83
2019-05-29T05:57:43.818Z,77.83
2019-05-29T05:58:43.842Z,77.28
2019-05-29T05:59:43.761Z,77.18
2019-05-29T06:00:43.745Z,75.71
2019-05-29T06:01:43.742Z,75.20
2019-05-29T06:02:43.749Z,75.82
2019-05-29T06:03:43.762Z,75.41
2019-05-29T06:04:43.711Z,73.98
2019-05-29T06:05:43.742Z,75.10
2019-05-29T06:06:43.676Z,74.90
2019-05-29T06:07:43.681Z,75.82
2019-05-29T06:08:43.703Z,73.77
2019-05-29T06:09:43.658Z,73.88
2019-05-29T06:10:43.663Z,73.67
2019-05-29T06:11:43.630Z,75.31
2019-05-29T06:12:43.614Z,74.18
2019-05-29T06:13:43.618Z,74.59
2019-05-29T06:14:43.623Z,73.77
2019-05-29T06:15:43.586Z,73.36
2019-05-29T06:16:43.564Z,74.29
2019-05-29T06:18:00.537Z,74.15
2019-05-29T06:18:44.576Z,73.13
2019-05-29T06:19:43.563Z,72.21
2019-05-29T06:20:43.580Z,72.75
2019-05-29T06:21:43.527Z,72.75
2019-05-29T06:22:43.742Z,72.86
2019-05-29T06:23:43.872Z,73.36
2019-05-29T06:24:43.758Z,72.86
2019-05-29T06:25:43.915Z,72.86
2019-05-29T06:26:43.467Z,73.06
2019-05-29T06:27:43.486Z,72.75
2019-05-29T06:28:43.634Z,72.75
2019-05-29T06:29:43.627Z,72.17
2019-05-29T06:30:45.065Z,72.79
2019-05-29T06:31:43.506Z,72.21
2019-05-29T06:32:43.679Z,73.03
2019-05-29T06:33:43.908Z,73.03
2019-05-29T06:34:43.805Z,71.70
2019-05-29T06:35:43.753Z,72.41
2019-05-29T06:36:43.915Z,72.38
2019-05-29T06:37:43.746Z,72.11
2019-05-29T06:38:44.403Z,72.31
2019-05-29T06:39:43.924Z,72.72
2019-05-29T06:40:44.031Z,72.82
2019-05-29T06:41:44.324Z,72.92
2019-05-29T06:42:43.922Z,72.99
2019-05-29T06:43:44.428Z,72.28
2019-05-29T06:44:44.854Z,72.17
2019-05-29T06:45:44.098Z,72.55
2019-05-29T06:46:45.300Z,71.84
2019-05-29T06:47:44.599Z,71.02
2019-05-29T06:48:56.318Z,70.27
2019-05-29T06:49:44.455Z,69.96
2019-05-29T06:50:43.496Z,69.53
2019-05-29T06:51:43.506Z,69.76
2019-05-29T06:52:43.596Z,70.98
2019-05-29T06:53:43.956Z,70.89
2019-05-29T06:54:44.147Z,69.25
2019-05-29T06:55:44.016Z,70.17
2019-05-29T06:56:43.817Z,70.27
2019-05-29T06:57:44.466Z,70.48
2019-05-29T06:58:44.340Z,69.15
2019-05-29T06:59:44.600Z,69.46
2019-05-29T07:00:43.134Z,69.35
2019-05-29T07:01:43.551Z,69.66
2019-05-29T07:02:43.089Z,70.17
2019-05-29T07:03:43.956Z,70.48
2019-05-29T07:04:43.047Z,70.27
2019-05-29T07:05:46.533Z,69.90
2019-05-29T07:06:44.817Z,69.76
2019-05-29T07:07:44.389Z,69.38
2019-05-29T07:08:46.471Z,69.38
2019-05-29T07:09:43.110Z,69.59
2019-05-29T07:10:44.484Z,69.96
2019-05-29T07:11:43.866Z,69.66
2019-05-29T07:12:44.103Z,68.77
2019-05-29T07:13:45.963Z,69.59
2019-05-29T07:14:42.941Z,70.00
2019-05-29T07:15:43.153Z,69.56
2019-05-29T07:16:49.571Z,69.90
2019-05-29T07:17:42.917Z,69.18
2019-05-29T07:19:20.453Z,69.49
2019-05-29T07:19:54.344Z,69.42
2019-05-29T07:20:42.887Z,69.82
2019-05-29T07:21:42.919Z,69.82
2019-05-29T07:22:43.091Z,69.90
2019-05-29T07:23:45.184Z,70.81
2019-05-29T07:24:43.497Z,69.08
2019-05-29T07:25:43.020Z,70.98
2019-05-29T07:26:43.662Z,70.68
2019-05-29T07:27:42.925Z,69.46
2019-05-29T07:29:05.698Z,69.86
2019-05-29T07:29:43.554Z,68.03
2019-05-29T07:30:48.038Z,69.53
2019-05-29T07:31:43.745Z,68.81
2019-05-29T07:32:49.004Z,69.63
2019-05-29T07:33:43.288Z,68.68
2019-05-29T07:34:57.919Z,68.17
2019-05-29T07:35:43.745Z,68.68
2019-05-29T07:36:44.029Z,68.44
2019-05-29T07:37:43.845Z,69.06
2019-05-29T07:38:45.931Z,66.91
2019-05-29T07:39:43.669Z,68.65
2019-05-29T07:40:44.934Z,67.73
2019-05-29T07:41:43.661Z,68.13
2019-05-29T07:42:49.615Z,68.54
2019-05-29T07:43:43.868Z,68.62
2019-05-29T07:44:43.989Z,66.88
2019-05-29T07:45:43.957Z,66.30
2019-05-29T07:46:42.581Z,66.50
2019-05-29T07:47:42.945Z,66.91
2019-05-29T07:48:42.745Z,66.10
2019-05-29T07:49:44.794Z,67.02
2019-05-29T07:50:42.605Z,66.13
2019-05-29T07:51:43.706Z,66.44
2019-05-29T07:52:43.373Z,66.74
2019-05-29T07:53:42.521Z,66.82
2019-05-29T07:54:43.586Z,67.73
2019-05-29T07:55:42.684Z,66.64
2019-05-29T07:56:42.545Z,66.71
2019-05-29T07:57:42.839Z,66.41
2019-05-29T07:58:48.996Z,65.69
2019-05-29T07:59:44.637Z,66.91
2019-05-29T08:01:06.879Z,66.27
2019-05-29T08:01:42.794Z,65.63
2019-05-29T08:02:43.351Z,66.04
2019-05-29T08:03:43.472Z,66.24
2019-05-29T08:04:43.054Z,65.91
2019-05-29T08:05:46.213Z,65.80
2019-05-29T08:06:48.317Z,65.16
2019-05-29T08:07:43.389Z,65.80
2019-05-29T08:08:43.206Z,66.11
2019-05-29T08:09:43.536Z,65.57
2019-05-29T08:10:43.369Z,63.84
2019-05-29T08:11:43.461Z,64.99
2019-05-29T08:12:50.235Z,65.06
2019-05-29T08:13:43.345Z,63.94
2019-05-29T08:14:43.479Z,64.35
2019-05-29T08:15:54.091Z,65.16
2019-05-29T08:16:42.332Z,64.55
2019-05-29T08:17:42.241Z,66.05
2019-05-29T08:18:46.214Z,62.79
2019-05-29T08:20:00.291Z,63.43
2019-05-29T08:20:42.243Z,61.68
2019-05-29T08:21:42.673Z,62.32
2019-05-29T08:22:42.478Z,62.41
2019-05-29T08:23:42.302Z,60.08
2019-05-29T08:24:42.676Z,60.08
2019-05-29T08:25:43.374Z,61.47
2019-05-29T08:26:42.910Z,61.27
2019-05-29T08:27:42.608Z,59.14
2019-05-29T08:28:42.795Z,58.94
2019-05-29T08:29:42.605Z,59.84
2019-05-29T08:30:47.380Z,61.40
2019-05-29T08:31:42.769Z,59.88
2019-05-29T08:32:43.519Z,60.79
2019-05-29T08:33:42.828Z,61.91
2019-05-29T08:34:43.024Z,62.72
2019-05-29T08:35:43.036Z,60.76
2019-05-29T08:36:55.824Z,59.64
2019-05-29T08:37:42.855Z,59.54
2019-05-29T08:38:43.782Z,59.41
2019-05-29T08:39:43.171Z,60.05
2019-05-29T08:40:43.001Z,59.03
2019-05-29T08:41:53.564Z,61.27
2019-05-29T08:42:43.228Z,59.67
2019-05-29T08:43:42.497Z,60.28
2019-05-29T08:44:43.275Z,60.08
2019-05-29T08:45:41.938Z,60.49
2019-05-29T08:46:57.629Z,60.66
2019-05-29T08:47:41.910Z,61.98
2019-05-29T08:48:41.980Z,60.02
2019-05-29T08:49:41.886Z,61.21
2019-05-29T08:50:41.888Z,59.08
2019-05-29T08:51:41.874Z,57.97
2019-05-29T08:52:41.889Z,58.17
2019-05-29T08:53:42.534Z,56.72
2019-05-29T08:54:42.102Z,55.20
2019-05-29T08:55:42.088Z,54.97
2019-05-29T08:56:42.269Z,55.07
2019-05-29T08:57:42.549Z,55.17
2019-05-29T08:58:42.923Z,56.77
2019-05-29T08:59:42.111Z,54.74
2019-05-29T09:00:46.567Z,56.26
2019-05-29T09:01:43.263Z,54.66
2019-05-29T09:02:42.556Z,56.11
2019-05-29T09:03:42.761Z,54.72
2019-05-29T09:04:43.012Z,54.39
2019-05-29T09:05:42.445Z,53.19
2019-05-29T09:06:43.020Z,54.82
2019-05-29T09:07:43.323Z,55.02
2019-05-29T09:08:43.742Z,54.61
2019-05-29T09:09:42.897Z,54.31
2019-05-29T09:10:43.127Z,54.31
2019-05-29T09:11:42.974Z,55.05
2019-05-29T09:12:41.642Z,55.45
2019-05-29T09:13:41.617Z,55.22
2019-05-29T09:14:41.624Z,56.65
2019-05-29T09:15:41.598Z,54.49
2019-05-29T09:16:41.666Z,53.75
2019-05-29T09:17:41.613Z,55.10
2019-05-29T09:18:41.585Z,53.14
2019-05-29T09:19:41.582Z,52.66
2019-05-29T09:21:01.209Z,51.44
2019-05-29T09:21:41.634Z,51.85
2019-05-29T09:22:41.541Z,51.16
2019-05-29T09:23:41.538Z,53.19
2019-05-29T09:24:41.493Z,54.79
2019-05-29T09:25:41.488Z,53.37
2019-05-29T09:26:41.521Z,53.27
2019-05-29T09:27:41.466Z,53.58
2019-05-29T09:28:41.474Z,51.82
2019-05-29T09:29:41.474Z,51.34
2019-05-29T09:30:41.427Z,52.89
2019-05-29T09:31:41.431Z,52.15
2019-05-29T09:32:49.981Z,51.54
2019-05-29T09:33:42.419Z,50.63
2019-05-29T09:34:41.420Z,51.93
2019-05-29T09:35:41.369Z,51.32
2019-05-29T09:36:41.410Z,50.08
2019-05-29T09:37:41.852Z,49.57
2019-05-29T09:38:41.420Z,51.88
2019-05-29T09:39:41.353Z,47.24
2019-05-29T09:40:41.359Z,48.25
2019-05-29T09:41:41.310Z,50.99
2019-05-29T09:42:42.293Z,50.18
2019-05-29T09:43:57.592Z,50.28
2019-05-29T09:44:42.296Z,50.99
2019-05-29T09:45:41.288Z,50.08
2019-05-29T09:46:41.286Z,50.79
2019-05-29T09:47:41.305Z,49.24
2019-05-29T09:48:49.596Z,49.44
2019-05-29T09:49:41.245Z,50.76
2019-05-29T09:50:50.246Z,48.31
2019-05-29T09:51:41.205Z,47.09
2019-05-29T09:52:41.193Z,48.31
2019-05-29T09:53:41.345Z,45.98
2019-05-29T09:54:41.169Z,43.47
2019-05-29T09:55:41.152Z,45.19
2019-05-29T09:56:41.156Z,46.10
2019-05-29T09:57:41.153Z,47.52
2019-05-29T09:58:41.171Z,48.11
2019-05-29T09:59:41.109Z,49.22
2019-05-29T10:00:41.118Z,46.99
2019-05-29T10:01:41.150Z,46.59
2019-05-29T10:02:41.142Z,47.60
2019-05-29T10:03:41.092Z,46.77
2019-05-29T10:04:41.056Z,48.08
2019-05-29T10:05:41.107Z,46.26
2019-05-29T10:06:41.062Z,46.56
2019-05-29T10:07:41.060Z,46.38
2019-05-29T10:08:41.023Z,47.70
2019-05-29T10:09:40.995Z,48.21
2019-05-29T10:10:41.005Z,46.06
2019-05-29T10:11:40.980Z,45.55
2019-05-29T10:12:41.008Z,46.36
2019-05-29T10:13:40.975Z,47.07
2019-05-29T10:14:40.970Z,47.27
2019-05-29T10:15:40.925Z,46.06
2019-05-29T10:16:40.915Z,46.06
2019-05-29T10:17:40.995Z,47.67
2019-05-29T10:18:40.927Z,47.78
2019-05-29T10:19:40.908Z,46.16
2019-05-29T10:20:40.921Z,47.38
2019-05-29T10:21:41.511Z,46.44
2019-05-29T10:22:40.848Z,47.15
2019-05-29T10:23:40.935Z,46.54
2019-05-29T10:24:40.835Z,45.43
2019-05-29T10:25:40.852Z,46.87
2019-05-29T10:26:40.843Z,46.46
2019-05-29T10:27:40.794Z,46.67
2019-05-29T10:28:57.788Z,47.07
2019-05-29T10:29:42.469Z,47.58
2019-05-29T10:30:42.254Z,46.04
2019-05-29T10:31:42.137Z,46.64
2019-05-29T10:32:42.393Z,44.60
2019-05-29T10:33:42.224Z,45.00
2019-05-29T10:34:42.154Z,45.10
2019-05-29T10:35:40.729Z,44.29
2019-05-29T10:36:40.714Z,46.04
2019-05-29T10:37:40.718Z,46.24
2019-05-29T10:38:40.695Z,46.54
2019-05-29T10:39:40.662Z,46.67
2019-05-29T10:40:40.773Z,47.38
2019-05-29T10:41:40.652Z,48.21
2019-05-29T10:42:40.660Z,46.59
2019-05-29T10:43:40.675Z,45.47
2019-05-29T10:44:40.605Z,44.84
2019-05-29T10:45:40.673Z,47.07
2019-05-29T10:46:40.586Z,45.86
2019-05-29T10:47:40.593Z,45.96
2019-05-29T10:48:41.310Z,45.75
2019-05-29T10:49:40.568Z,46.44
2019-05-29T10:50:40.538Z,46.34
2019-05-29T10:51:58.023Z,46.44
2019-05-29T10:52:41.537Z,46.52
2019-05-29T10:53:40.525Z,45.51
2019-05-29T10:54:40.537Z,46.44
2019-05-29T10:55:40.534Z,46.75
2019-05-29T10:56:40.556Z,45.23
2019-05-29T10:57:40.481Z,45.73
2019-05-29T10:58:49.572Z,46.44
2019-05-29T10:59:40.472Z,45.15
2019-05-29T11:00:40.465Z,45.63
2019-05-29T11:01:40.440Z,44.32
2019-05-29T11:02:40.449Z,45.71
2019-05-29T11:03:40.409Z,43.69
2019-05-29T11:04:40.395Z,44.01
2019-05-29T11:05:40.391Z,44.12
2019-05-29T11:06:41.368Z,44.72
2019-05-29T11:07:40.409Z,44.12
2019-05-29T11:08:40.348Z,44.64
2019-05-29T11:09:44.308Z,43.12
2019-05-29T11:10:40.333Z,44.21
2019-05-29T11:11:40.345Z,44.84
2019-05-29T11:12:40.335Z,43.61
2019-05-29T11:13:40.309Z,45.12
2019-05-29T11:14:40.286Z,44.70
2019-05-29T11:15:40.265Z,44.40
2019-05-29T11:16:40.269Z,44.70
2019-05-29T11:17:40.268Z,43.38
2019-05-29T11:18:40.251Z,44.48
2019-05-29T11:19:40.221Z,44.17
2019-05-29T11:20:40.226Z,42.66
2019-05-29T11:21:40.263Z,43.67
2019-05-29T11:22:40.211Z,44.09
2019-05-29T11:23:40.178Z,43.41
2019-05-29T11:24:40.186Z,43.63
2019-05-29T11:25:40.156Z,44.92
2019-05-29T11:26:40.162Z,44.64
2019-05-29T11:27:40.199Z,45.75
2019-05-29T11:28:40.139Z,45.96
2019-05-29T11:29:40.158Z,46.46
2019-05-29T11:30:40.117Z,45.65
2019-05-29T11:31:40.095Z,46.87
2019-05-29T11:32:40.092Z,45.96
2019-05-29T11:33:40.108Z,44.74
2019-05-29T11:34:40.197Z,46.14
2019-05-29T11:35:54.816Z,43.30
2019-05-29T11:36:40.056Z,43.51
2019-05-29T11:37:40.031Z,43.49
2019-05-29T11:38:40.015Z,43.10
2019-05-29T11:39:40.022Z,43.61
2019-05-29T11:40:40.154Z,42.07
2019-05-29T11:41:39.990Z,44.60
2019-05-29T11:42:39.964Z,45.00
2019-05-29T11:43:39.998Z,44.68
2019-05-29T11:44:39.950Z,44.37
2019-05-29T11:45:39.970Z,44.66
2019-05-29T11:46:39.967Z,41.44
2019-05-29T11:47:39.928Z,40.31
2019-05-29T11:48:39.956Z,41.83
2019-05-29T11:49:39.887Z,41.93
2019-05-29T11:50:39.887Z,41.02
2019-05-29T11:51:44.125Z,41.83
2019-05-29T11:52:43.108Z,42.64
2019-05-29T11:53:39.853Z,42.03
2019-05-29T11:54:39.860Z,42.13
2019-05-29T11:55:39.823Z,41.22
2019-05-29T11:56:39.832Z,42.03
2019-05-29T11:57:40.288Z,42.33
2019-05-29T11:58:39.791Z,41.73
2019-05-29T11:59:39.793Z,42.03
2019-05-29T12:00:39.802Z,41.42
2019-05-29T12:01:50.060Z,42.43
2019-05-29T12:02:39.799Z,41.81
2019-05-29T12:04:05.180Z,41.00
2019-05-29T12:04:40.764Z,42.41
2019-05-29T12:05:39.728Z,42.01
2019-05-29T12:06:39.700Z,41.71
2019-05-29T12:07:39.707Z,41.81
2019-05-29T12:08:39.756Z,40.72
2019-05-29T12:09:39.677Z,41.73
2019-05-29T12:10:39.679Z,41.93
2019-05-29T12:11:39.667Z,41.52
2019-05-29T12:12:39.669Z,42.25
2019-05-29T12:13:39.647Z,42.37
2019-05-29T12:14:58.881Z,43.18
2019-05-29T12:15:39.607Z,42.27
2019-05-29T12:16:39.603Z,43.18
2019-05-29T12:17:40.136Z,42.19
2019-05-29T12:18:39.574Z,42.29
2019-05-29T12:19:39.591Z,42.49
2019-05-29T12:20:39.570Z,42.98
2019-05-29T12:21:42.496Z,43.69
2019-05-29T12:22:39.545Z,43.99
2019-05-29T12:23:39.598Z,43.79
2019-05-29T12:24:39.520Z,43.67
2019-05-29T12:25:39.566Z,43.26
2019-05-29T12:26:39.524Z,42.23
2019-05-29T12:27:39.483Z,42.03
2019-05-29T12:28:39.573Z,41.63
2019-05-29T12:29:39.489Z,41.14
2019-05-29T12:30:39.451Z,42.07
2019-05-29T12:31:39.454Z,41.56
2019-05-29T12:32:39.451Z,41.66
2019-05-29T12:33:39.405Z,42.35
2019-05-29T12:34:52.740Z,42.05
2019-05-29T12:35:40.401Z,41.55
2019-05-29T12:36:39.435Z,41.85
2019-05-29T12:37:39.379Z,41.93
2019-05-29T12:38:39.350Z,42.15
2019-05-29T12:39:39.476Z,41.83
2019-05-29T12:40:39.350Z,42.05
2019-05-29T12:41:39.462Z,41.64
2019-05-29T12:42:40.620Z,41.95
2019-05-29T12:43:40.308Z,42.46
2019-05-29T12:44:39.278Z,43.69
2019-05-29T12:45:39.311Z,42.66
2019-05-29T12:46:39.285Z,42.25
2019-05-29T12:47:39.298Z,42.74
2019-05-29T12:48:39.257Z,42.54
2019-05-29T12:49:39.265Z,42.74
2019-05-29T12:50:39.218Z,41.52
2019-05-29T12:51:39.219Z,41.32
2019-05-29T12:52:39.223Z,41.50